sensor_id;sensor_type;location;lat;lon;timestamp;pressure;altitude;pressure_sealevel;temperature;humidity
5814;BME280;2933;52.302;8.134;2023-01-30T00:04:10;100439.22;;;1.72;100.00
5814;BME280;2933;52.302;8.134;2023-01-30T00:09:13;100430.59;;;1.73;100.00
5814;BME280;2933;52.302;8.134;2023-01-30T00:14:16;100426.13;;;1.80;100.00
5814;BME280;2933;52.302;8.134;2023-01-30T00:19:17;100460.34;;;1.85;100.00
5814;BME280;2933;52.302;8.134;2023-01-30T00:24:19;100430.19;;;1.88;100.00
5814;BME280;2933;52.302;8.134;2023-01-30T00:29:22;100401.91;;;1.87;100.00
5814;BME280;2933;52.302;8.134;2023-01-30T00:34:23;100403.41;;;1.96;100.00
5814;BME280;2933;52.302;8.134;2023-01-30T00:39:25;100402.50;;;1.97;100.00
5814;BME280;2933;52.302;8.134;2023-01-30T00:44:27;100390.34;;;2.02;100.00
5814;BME280;2933;52.302;8.134;2023-01-30T00:49:47;100403.19;;;2.03;100.00
5814;BME280;2933;52.302;8.134;2023-01-30T00:54:48;100369.63;;;2.05;100.00
5814;BME280;2933;52.302;8.134;2023-01-30T00:59:51;100320.84;;;1.99;100.00
5814;BME280;2933;52.302;8.134;2023-01-30T01:04:53;100312.19;;;2.01;100.00
5814;BME280;2933;52.302;8.134;2023-01-30T01:09:55;100292.84;;;1.88;100.00
5814;BME280;2933;52.302;8.134;2023-01-30T01:14:58;100305.28;;;2.03;100.00
5814;BME280;2933;52.302;8.134;2023-01-30T01:19:59;100284.78;;;1.99;100.00
5814;BME280;2933;52.302;8.134;2023-01-30T01:25:01;100277.69;;;2.07;100.00
5814;BME280;2933;52.302;8.134;2023-01-30T01:30:05;100285.47;;;2.05;100.00
5814;BME280;2933;52.302;8.134;2023-01-30T01:35:08;100272.59;;;2.04;100.00
5814;BME280;2933;52.302;8.134;2023-01-30T01:40:14;100277.50;;;2.13;100.00
5814;BME280;2933;52.302;8.134;2023-01-30T01:45:36;100264.69;;;2.10;100.00
5814;BME280;2933;52.302;8.134;2023-01-30T01:50:41;100255.94;;;2.16;100.00
5814;BME280;2933;52.302;8.134;2023-01-30T01:55:46;100242.06;;;2.21;100.00
5814;BME280;2933;52.302;8.134;2023-01-30T02:00:51;100224.72;;;2.25;100.00
5814;BME280;2933;52.302;8.134;2023-01-30T02:05:56;100213.47;;;2.29;100.00
5814;BME280;2933;52.302;8.134;2023-01-30T02:11:04;100200.47;;;2.32;100.00
5814;BME280;2933;52.302;8.134;2023-01-30T02:16:08;100206.22;;;2.40;100.00
5814;BME280;2933;52.302;8.134;2023-01-30T02:26:56;100171.22;;;2.33;100.00
5814;BME280;2933;52.302;8.134;2023-01-30T02:32:07;100175.69;;;2.55;100.00
5814;BME280;2933;52.302;8.134;2023-01-30T02:37:22;100169.63;;;2.56;100.00
5814;BME280;2933;52.302;8.134;2023-01-30T02:42:32;100159.69;;;2.70;100.00
5814;BME280;2933;52.302;8.134;2023-01-30T02:47:38;100151.81;;;2.75;100.00
5814;BME280;2933;52.302;8.134;2023-01-30T02:52:43;100152.72;;;2.74;100.00
5814;BME280;2933;52.302;8.134;2023-01-30T02:57:45;100141.06;;;2.87;100.00
5814;BME280;2933;52.302;8.134;2023-01-30T03:02:58;100127.03;;;2.95;100.00
5814;BME280;2933;52.302;8.134;2023-01-30T03:08:16;100114.84;;;3.00;100.00
5814;BME280;2933;52.302;8.134;2023-01-30T03:13:27;100118.94;;;3.05;100.00
5814;BME280;2933;52.302;8.134;2023-01-30T03:18:31;100093.69;;;3.14;100.00
5814;BME280;2933;52.302;8.134;2023-01-30T03:23:32;100078.72;;;3.23;100.00
5814;BME280;2933;52.302;8.134;2023-01-30T03:28:34;100069.13;;;3.27;100.00
5814;BME280;2933;52.302;8.134;2023-01-30T03:33:37;100050.19;;;3.27;100.00
5814;BME280;2933;52.302;8.134;2023-01-30T03:38:39;100046.66;;;3.29;100.00
5814;BME280;2933;52.302;8.134;2023-01-30T03:43:40;100043.34;;;3.26;100.00
5814;BME280;2933;52.302;8.134;2023-01-30T03:48:43;100035.19;;;3.36;100.00
5814;BME280;2933;52.302;8.134;2023-01-30T03:53:45;100044.63;;;3.37;100.00
5814;BME280;2933;52.302;8.134;2023-01-30T03:58:46;100045.19;;;3.46;100.00
5814;BME280;2933;52.302;8.134;2023-01-30T04:03:49;100043.38;;;3.48;100.00
5814;BME280;2933;52.302;8.134;2023-01-30T04:08:51;100042.41;;;3.50;100.00
5814;BME280;2933;52.302;8.134;2023-01-30T04:13:53;100045.63;;;3.57;100.00
5814;BME280;2933;52.302;8.134;2023-01-30T04:18:56;100016.41;;;3.55;100.00
5814;BME280;2933;52.302;8.134;2023-01-30T04:23:57;100046.13;;;3.65;100.00
5814;BME280;2933;52.302;8.134;2023-01-30T04:28:59;100039.34;;;3.63;100.00
5814;BME280;2933;52.302;8.134;2023-01-30T04:34:01;100041.69;;;3.69;100.00
5814;BME280;2933;52.302;8.134;2023-01-30T04:39:03;100029.66;;;3.68;100.00
5814;BME280;2933;52.302;8.134;2023-01-30T04:44:05;100000.75;;;3.60;100.00
5814;BME280;2933;52.302;8.134;2023-01-30T04:49:09;100040.56;;;3.76;100.00
5814;BME280;2933;52.302;8.134;2023-01-30T04:54:11;100027.63;;;3.76;100.00
5814;BME280;2933;52.302;8.134;2023-01-30T04:59:13;100023.19;;;3.80;100.00
5814;BME280;2933;52.302;8.134;2023-01-30T05:04:15;100026.41;;;3.85;100.00
5814;BME280;2933;52.302;8.134;2023-01-30T05:09:17;100027.78;;;3.94;100.00
5814;BME280;2933;52.302;8.134;2023-01-30T05:14:18;100024.31;;;3.95;100.00
5814;BME280;2933;52.302;8.134;2023-01-30T05:19:21;100038.41;;;4.08;100.00
5814;BME280;2933;52.302;8.134;2023-01-30T05:24:23;100031.59;;;4.28;100.00
5814;BME280;2933;52.302;8.134;2023-01-30T05:29:25;100026.53;;;4.25;100.00
5814;BME280;2933;52.302;8.134;2023-01-30T05:34:28;100020.38;;;4.27;100.00
5814;BME280;2933;52.302;8.134;2023-01-30T05:39:30;100042.19;;;4.22;100.00
5814;BME280;2933;52.302;8.134;2023-01-30T05:44:31;100047.47;;;4.18;100.00
5814;BME280;2933;52.302;8.134;2023-01-30T05:49:35;100026.44;;;4.26;100.00
5814;BME280;2933;52.302;8.134;2023-01-30T05:54:36;100027.25;;;4.28;100.00
5814;BME280;2933;52.302;8.134;2023-01-30T05:59:38;100013.47;;;4.28;100.00
5814;BME280;2933;52.302;8.134;2023-01-30T06:04:40;100041.78;;;4.31;100.00
5814;BME280;2933;52.302;8.134;2023-01-30T06:09:42;100042.34;;;4.37;100.00
5814;BME280;2933;52.302;8.134;2023-01-30T06:14:43;100035.44;;;4.38;100.00
5814;BME280;2933;52.302;8.134;2023-01-30T06:19:46;100040.63;;;4.38;100.00
5814;BME280;2933;52.302;8.134;2023-01-30T06:24:48;100031.50;;;4.29;100.00
5814;BME280;2933;52.302;8.134;2023-01-30T06:29:49;100053.94;;;4.49;100.00
5814;BME280;2933;52.302;8.134;2023-01-30T06:34:52;100059.94;;;4.50;100.00
5814;BME280;2933;52.302;8.134;2023-01-30T06:39:54;100066.94;;;4.48;100.00
5814;BME280;2933;52.302;8.134;2023-01-30T06:44:55;100081.69;;;4.46;100.00
5814;BME280;2933;52.302;8.134;2023-01-30T06:49:58;100083.56;;;4.42;100.00
5814;BME280;2933;52.302;8.134;2023-01-30T06:54:59;100091.91;;;4.49;100.00
5814;BME280;2933;52.302;8.134;2023-01-30T07:00:02;100087.38;;;4.33;100.00
5814;BME280;2933;52.302;8.134;2023-01-30T07:05:07;100098.16;;;4.43;100.00
5814;BME280;2933;52.302;8.134;2023-01-30T07:10:10;100090.28;;;4.26;100.00
5814;BME280;2933;52.302;8.134;2023-01-30T07:15:12;100086.66;;;4.30;100.00
5814;BME280;2933;52.302;8.134;2023-01-30T07:20:15;100101.78;;;4.39;100.00
5814;BME280;2933;52.302;8.134;2023-01-30T07:25:17;100094.41;;;4.30;100.00
5814;BME280;2933;52.302;8.134;2023-01-30T07:30:19;100112.25;;;4.36;100.00
5814;BME280;2933;52.302;8.134;2023-01-30T07:35:23;100097.84;;;4.30;100.00
5814;BME280;2933;52.302;8.134;2023-01-30T07:40:25;100115.16;;;4.28;100.00
5814;BME280;2933;52.302;8.134;2023-01-30T07:45:29;100122.84;;;4.30;100.00
5814;BME280;2933;52.302;8.134;2023-01-30T07:50:33;100121.16;;;4.29;100.00
5814;BME280;2933;52.302;8.134;2023-01-30T07:55:35;100122.84;;;4.30;100.00
5814;BME280;2933;52.302;8.134;2023-01-30T08:00:36;100126.34;;;4.29;100.00
5814;BME280;2933;52.302;8.134;2023-01-30T08:05:39;100114.44;;;4.25;100.00
5814;BME280;2933;52.302;8.134;2023-01-30T08:10:41;100116.06;;;4.27;100.00
5814;BME280;2933;52.302;8.134;2023-01-30T08:15:43;100096.66;;;4.17;100.00
5814;BME280;2933;52.302;8.134;2023-01-30T08:20:45;100116.69;;;4.32;100.00
5814;BME280;2933;52.302;8.134;2023-01-30T08:25:47;100130.25;;;4.39;100.00
5814;BME280;2933;52.302;8.134;2023-01-30T08:30:48;100121.44;;;4.43;100.00
5814;BME280;2933;52.302;8.134;2023-01-30T08:35:54;100128.50;;;4.40;100.00
5814;BME280;2933;52.302;8.134;2023-01-30T08:40:56;100134.44;;;4.42;100.00
5814;BME280;2933;52.302;8.134;2023-01-30T08:45:58;100137.22;;;4.37;100.00
5814;BME280;2933;52.302;8.134;2023-01-30T08:51:01;100136.13;;;4.43;100.00
5814;BME280;2933;52.302;8.134;2023-01-30T08:56:03;100127.44;;;4.44;100.00
5814;BME280;2933;52.302;8.134;2023-01-30T09:01:05;100124.59;;;4.50;100.00
5814;BME280;2933;52.302;8.134;2023-01-30T09:06:08;100139.22;;;4.51;100.00
5814;BME280;2933;52.302;8.134;2023-01-30T09:11:10;100159.56;;;4.60;100.00
5814;BME280;2933;52.302;8.134;2023-01-30T09:16:12;100130.31;;;4.58;100.00
5814;BME280;2933;52.302;8.134;2023-01-30T09:21:15;100129.28;;;4.62;100.00
5814;BME280;2933;52.302;8.134;2023-01-30T09:26:16;100149.22;;;4.60;100.00
5814;BME280;2933;52.302;8.134;2023-01-30T09:31:18;100132.00;;;4.59;100.00
5814;BME280;2933;52.302;8.134;2023-01-30T09:36:21;100148.56;;;4.55;100.00
5814;BME280;2933;52.302;8.134;2023-01-30T09:41:47;100152.56;;;4.62;100.00
5814;BME280;2933;52.302;8.134;2023-01-30T09:46:56;100155.34;;;4.58;100.00
5814;BME280;2933;52.302;8.134;2023-01-30T09:52:10;100132.78;;;4.61;100.00
5814;BME280;2933;52.302;8.134;2023-01-30T09:57:19;100117.44;;;4.57;100.00
5814;BME280;2933;52.302;8.134;2023-01-30T10:02:29;100123.66;;;4.73;100.00
5814;BME280;2933;52.302;8.134;2023-01-30T10:07:58;100136.47;;;4.76;100.00
5814;BME280;2933;52.302;8.134;2023-01-30T10:13:13;100137.69;;;4.88;100.00
5814;BME280;2933;52.302;8.134;2023-01-30T10:18:48;100156.25;;;4.98;100.00
5814;BME280;2933;52.302;8.134;2023-01-30T10:24:11;100172.06;;;4.92;100.00
5814;BME280;2933;52.302;8.134;2023-01-30T10:29:20;100162.84;;;4.84;100.00
5814;BME280;2933;52.302;8.134;2023-01-30T10:34:26;100161.06;;;4.87;100.00
5814;BME280;2933;52.302;8.134;2023-01-30T10:39:35;100151.59;;;4.85;100.00
5814;BME280;2933;52.302;8.134;2023-01-30T10:44:40;100148.94;;;4.87;100.00
5814;BME280;2933;52.302;8.134;2023-01-30T10:49:44;100127.78;;;4.98;100.00
5814;BME280;2933;52.302;8.134;2023-01-30T10:54:58;100118.53;;;4.92;100.00
5814;BME280;2933;52.302;8.134;2023-01-30T11:00:05;100143.94;;;5.03;100.00
5814;BME280;2933;52.302;8.134;2023-01-30T11:05:14;100134.47;;;5.04;100.00
5814;BME280;2933;52.302;8.134;2023-01-30T11:10:18;100131.78;;;5.05;100.00
5814;BME280;2933;52.302;8.134;2023-01-30T11:15:21;100109.81;;;4.95;100.00
5814;BME280;2933;52.302;8.134;2023-01-30T11:20:24;100098.13;;;5.05;100.00
5814;BME280;2933;52.302;8.134;2023-01-30T11:25:27;100091.13;;;5.07;100.00
5814;BME280;2933;52.302;8.134;2023-01-30T11:30:33;100099.75;;;5.08;100.00
5814;BME280;2933;52.302;8.134;2023-01-30T11:35:41;100111.56;;;5.13;100.00
5814;BME280;2933;52.302;8.134;2023-01-30T11:40:46;100130.63;;;5.12;100.00
5814;BME280;2933;52.302;8.134;2023-01-30T11:45:48;100126.97;;;5.36;99.47
5814;BME280;2933;52.302;8.134;2023-01-30T11:50:59;100139.47;;;5.46;96.21
5814;BME280;2933;52.302;8.134;2023-01-30T11:56:07;100121.81;;;5.74;95.80
5814;BME280;2933;52.302;8.134;2023-01-30T12:01:10;100120.31;;;5.68;96.64
5814;BME280;2933;52.302;8.134;2023-01-30T12:06:20;100142.75;;;5.50;100.00
5814;BME280;2933;52.302;8.134;2023-01-30T12:11:39;100176.00;;;5.00;100.00
5814;BME280;2933;52.302;8.134;2023-01-30T12:16:51;100239.03;;;4.57;100.00
5814;BME280;2933;52.302;8.134;2023-01-30T12:21:57;100193.34;;;4.13;100.00
5814;BME280;2933;52.302;8.134;2023-01-30T12:27:04;100179.25;;;3.98;100.00
5814;BME280;2933;52.302;8.134;2023-01-30T12:32:11;100172.91;;;4.07;100.00
5814;BME280;2933;52.302;8.134;2023-01-30T12:37:26;100182.97;;;4.35;100.00
5814;BME280;2933;52.302;8.134;2023-01-30T12:42:56;100185.22;;;4.65;100.00
5814;BME280;2933;52.302;8.134;2023-01-30T12:48:16;100181.31;;;4.77;100.00
5814;BME280;2933;52.302;8.134;2023-01-30T12:53:39;100173.41;;;4.59;100.00
5814;BME280;2933;52.302;8.134;2023-01-30T12:58:50;100204.41;;;4.81;100.00
5814;BME280;2933;52.302;8.134;2023-01-30T13:04:01;100203.69;;;4.78;100.00
5814;BME280;2933;52.302;8.134;2023-01-30T13:09:15;100183.44;;;4.88;100.00
5814;BME280;2933;52.302;8.134;2023-01-30T13:14:27;100211.97;;;5.07;100.00
5814;BME280;2933;52.302;8.134;2023-01-30T13:19:39;100214.75;;;5.23;100.00
5814;BME280;2933;52.302;8.134;2023-01-30T13:24:49;100222.13;;;5.32;100.00
5814;BME280;2933;52.302;8.134;2023-01-30T13:29:58;100231.25;;;5.41;100.00
5814;BME280;2933;52.302;8.134;2023-01-30T13:35:03;100234.50;;;5.46;100.00
5814;BME280;2933;52.302;8.134;2023-01-30T13:40:13;100254.25;;;5.48;100.00
5814;BME280;2933;52.302;8.134;2023-01-30T13:45:20;100254.88;;;5.33;100.00
5814;BME280;2933;52.302;8.134;2023-01-30T13:50:32;100270.63;;;5.49;99.32
5814;BME280;2933;52.302;8.134;2023-01-30T13:55:40;100279.38;;;5.46;99.03
5814;BME280;2933;52.302;8.134;2023-01-30T14:00:53;100277.88;;;5.41;99.57
5814;BME280;2933;52.302;8.134;2023-01-30T14:06:02;100278.28;;;5.31;98.89
5814;BME280;2933;52.302;8.134;2023-01-30T14:11:28;100286.22;;;5.27;99.09
5814;BME280;2933;52.302;8.134;2023-01-30T14:16:43;100310.00;;;5.37;96.53
5814;BME280;2933;52.302;8.134;2023-01-30T14:21:53;100338.38;;;5.40;97.39
5814;BME280;2933;52.302;8.134;2023-01-30T14:27:03;100344.56;;;5.36;97.91
5814;BME280;2933;52.302;8.134;2023-01-30T14:32:34;100346.16;;;5.40;98.14
5814;BME280;2933;52.302;8.134;2023-01-30T14:48:52;100383.50;;;5.34;97.38
5814;BME280;2933;52.302;8.134;2023-01-30T14:53:59;100404.41;;;5.29;98.97
5814;BME280;2933;52.302;8.134;2023-01-30T14:59:04;100422.91;;;5.20;99.84
5814;BME280;2933;52.302;8.134;2023-01-30T15:04:13;100425.09;;;5.31;100.00
5814;BME280;2933;52.302;8.134;2023-01-30T15:09:16;100429.59;;;5.26;100.00
5814;BME280;2933;52.302;8.134;2023-01-30T15:14:22;100455.38;;;5.29;100.00
5814;BME280;2933;52.302;8.134;2023-01-30T15:19:44;100456.22;;;5.29;100.00
5814;BME280;2933;52.302;8.134;2023-01-30T15:30:50;100485.38;;;5.34;100.00
5814;BME280;2933;52.302;8.134;2023-01-30T15:35:57;100478.78;;;5.26;100.00
5814;BME280;2933;52.302;8.134;2023-01-30T15:41:01;100502.81;;;5.31;100.00
5814;BME280;2933;52.302;8.134;2023-01-30T15:46:09;100520.69;;;5.37;100.00
5814;BME280;2933;52.302;8.134;2023-01-30T15:51:16;100512.22;;;5.32;100.00
5814;BME280;2933;52.302;8.134;2023-01-30T15:56:22;100523.69;;;5.26;100.00
5814;BME280;2933;52.302;8.134;2023-01-30T16:01:24;100551.22;;;5.29;100.00
5814;BME280;2933;52.302;8.134;2023-01-30T16:06:32;100552.47;;;5.18;100.00
5814;BME280;2933;52.302;8.134;2023-01-30T16:11:37;100576.41;;;5.25;100.00
5814;BME280;2933;52.302;8.134;2023-01-30T16:16:40;100579.03;;;5.24;100.00
5814;BME280;2933;52.302;8.134;2023-01-30T16:21:45;100588.75;;;5.18;100.00
5814;BME280;2933;52.302;8.134;2023-01-30T16:26:48;100593.56;;;5.28;100.00
5814;BME280;2933;52.302;8.134;2023-01-30T16:31:52;100603.47;;;5.16;100.00
5814;BME280;2933;52.302;8.134;2023-01-30T16:37:00;100614.44;;;4.99;100.00
5814;BME280;2933;52.302;8.134;2023-01-30T16:42:18;100618.78;;;4.99;100.00
5814;BME280;2933;52.302;8.134;2023-01-30T16:47:22;100625.53;;;5.03;100.00
5814;BME280;2933;52.302;8.134;2023-01-30T16:52:30;100608.72;;;4.90;100.00
5814;BME280;2933;52.302;8.134;2023-01-30T16:57:38;100649.72;;;5.02;100.00
5814;BME280;2933;52.302;8.134;2023-01-30T17:02:41;100656.75;;;4.98;100.00
5814;BME280;2933;52.302;8.134;2023-01-30T17:07:51;100675.16;;;4.91;100.00
5814;BME280;2933;52.302;8.134;2023-01-30T17:12:55;100689.19;;;4.83;100.00
5814;BME280;2933;52.302;8.134;2023-01-30T17:17:57;100695.97;;;4.88;100.00
5814;BME280;2933;52.302;8.134;2023-01-30T17:23:04;100710.91;;;4.79;100.00
5814;BME280;2933;52.302;8.134;2023-01-30T17:28:14;100706.63;;;4.78;100.00
5814;BME280;2933;52.302;8.134;2023-01-30T17:33:17;100722.28;;;4.75;100.00
5814;BME280;2933;52.302;8.134;2023-01-30T17:38:20;100718.59;;;4.56;100.00
5814;BME280;2933;52.302;8.134;2023-01-30T17:43:21;100728.13;;;4.53;100.00
5814;BME280;2933;52.302;8.134;2023-01-30T17:48:23;100733.47;;;4.49;100.00
5814;BME280;2933;52.302;8.134;2023-01-30T17:53:25;100737.41;;;4.32;100.00
5814;BME280;2933;52.302;8.134;2023-01-30T17:58:27;100746.22;;;4.27;100.00
5814;BME280;2933;52.302;8.134;2023-01-30T18:03:29;100753.97;;;4.27;100.00
5814;BME280;2933;52.302;8.134;2023-01-30T18:08:31;100746.47;;;4.17;100.00
5814;BME280;2933;52.302;8.134;2023-01-30T18:13:33;100758.34;;;4.25;100.00
5814;BME280;2933;52.302;8.134;2023-01-30T18:18:35;100760.09;;;4.24;100.00
5814;BME280;2933;52.302;8.134;2023-01-30T18:23:37;100776.50;;;4.23;100.00
5814;BME280;2933;52.302;8.134;2023-01-30T18:28:39;100779.31;;;4.15;100.00
5814;BME280;2933;52.302;8.134;2023-01-30T18:33:41;100798.16;;;4.19;100.00
5814;BME280;2933;52.302;8.134;2023-01-30T18:38:46;100798.72;;;4.29;100.00
5814;BME280;2933;52.302;8.134;2023-01-30T18:43:53;100808.09;;;4.33;100.00
5814;BME280;2933;52.302;8.134;2023-01-30T18:48:55;100810.59;;;4.36;100.00
5814;BME280;2933;52.302;8.134;2023-01-30T18:53:58;100821.09;;;4.30;100.00
5814;BME280;2933;52.302;8.134;2023-01-30T18:59:01;100835.75;;;4.31;100.00
5814;BME280;2933;52.302;8.134;2023-01-30T19:04:05;100846.09;;;4.31;100.00
5814;BME280;2933;52.302;8.134;2023-01-30T19:09:11;100836.63;;;4.30;100.00
5814;BME280;2933;52.302;8.134;2023-01-30T19:14:13;100853.66;;;4.37;100.00
5814;BME280;2933;52.302;8.134;2023-01-30T19:19:14;100859.50;;;4.44;100.00
5814;BME280;2933;52.302;8.134;2023-01-30T19:24:17;100875.19;;;4.39;100.00
5814;BME280;2933;52.302;8.134;2023-01-30T19:29:19;100848.84;;;4.25;100.00
5814;BME280;2933;52.302;8.134;2023-01-30T19:34:20;100856.66;;;4.23;100.00
5814;BME280;2933;52.302;8.134;2023-01-30T19:39:23;100878.41;;;4.16;100.00
5814;BME280;2933;52.302;8.134;2023-01-30T19:44:25;100891.28;;;4.17;100.00
5814;BME280;2933;52.302;8.134;2023-01-30T19:49:26;100891.38;;;4.14;100.00
5814;BME280;2933;52.302;8.134;2023-01-30T19:54:29;100895.09;;;4.04;100.00
5814;BME280;2933;52.302;8.134;2023-01-30T19:59:31;100856.84;;;3.84;100.00
5814;BME280;2933;52.302;8.134;2023-01-30T20:04:37;100908.94;;;4.01;100.00
5814;BME280;2933;52.302;8.134;2023-01-30T20:09:41;100907.44;;;3.94;100.00
5814;BME280;2933;52.302;8.134;2023-01-30T20:14:42;100941.06;;;3.93;100.00
5814;BME280;2933;52.302;8.134;2023-01-30T20:19:44;100947.09;;;3.93;100.00
5814;BME280;2933;52.302;8.134;2023-01-30T20:24:47;100947.94;;;3.94;100.00
5814;BME280;2933;52.302;8.134;2023-01-30T20:29:48;100967.22;;;3.82;100.00
5814;BME280;2933;52.302;8.134;2023-01-30T20:34:50;100962.97;;;3.78;100.00
5814;BME280;2933;52.302;8.134;2023-01-30T20:39:52;100970.25;;;3.63;100.00
5814;BME280;2933;52.302;8.134;2023-01-30T20:44:54;100987.66;;;3.55;100.00
5814;BME280;2933;52.302;8.134;2023-01-30T20:49:56;100977.28;;;3.56;100.00
5814;BME280;2933;52.302;8.134;2023-01-30T20:54:58;100993.09;;;3.43;100.00
5814;BME280;2933;52.302;8.134;2023-01-30T21:00:00;100997.25;;;3.50;100.00
5814;BME280;2933;52.302;8.134;2023-01-30T21:05:03;101001.72;;;3.42;100.00
5814;BME280;2933;52.302;8.134;2023-01-30T21:10:07;100997.53;;;3.37;100.00
5814;BME280;2933;52.302;8.134;2023-01-30T21:15:09;101010.25;;;3.45;100.00
5814;BME280;2933;52.302;8.134;2023-01-30T21:20:11;101004.25;;;3.45;100.00
5814;BME280;2933;52.302;8.134;2023-01-30T21:25:14;101008.59;;;3.43;100.00
5814;BME280;2933;52.302;8.134;2023-01-30T21:30:16;101004.44;;;3.35;100.00
5814;BME280;2933;52.302;8.134;2023-01-30T21:35:17;101025.97;;;3.36;100.00
5814;BME280;2933;52.302;8.134;2023-01-30T21:40:20;101042.47;;;3.29;100.00
5814;BME280;2933;52.302;8.134;2023-01-30T21:45:39;101049.41;;;3.27;100.00
5814;BME280;2933;52.302;8.134;2023-01-30T21:50:41;101057.09;;;3.30;100.00
5814;BME280;2933;52.302;8.134;2023-01-30T21:55:48;101063.97;;;3.31;100.00
5814;BME280;2933;52.302;8.134;2023-01-30T22:00:50;101054.44;;;3.33;100.00
5814;BME280;2933;52.302;8.134;2023-01-30T22:05:51;101053.47;;;3.38;100.00
5814;BME280;2933;52.302;8.134;2023-01-30T22:11:04;101052.72;;;3.32;100.00
5814;BME280;2933;52.302;8.134;2023-01-30T22:16:08;101032.06;;;3.33;100.00
5814;BME280;2933;52.302;8.134;2023-01-30T22:21:12;101042.28;;;3.38;100.00
5814;BME280;2933;52.302;8.134;2023-01-30T22:26:17;101044.84;;;3.38;100.00
5814;BME280;2933;52.302;8.134;2023-01-30T22:31:19;101048.34;;;3.37;100.00
5814;BME280;2933;52.302;8.134;2023-01-30T22:36:23;101049.47;;;3.23;100.00
5814;BME280;2933;52.302;8.134;2023-01-30T22:41:27;101051.31;;;3.18;100.00
5814;BME280;2933;52.302;8.134;2023-01-30T22:46:32;101049.75;;;3.11;100.00
5814;BME280;2933;52.302;8.134;2023-01-30T22:51:35;101051.53;;;3.07;100.00
5814;BME280;2933;52.302;8.134;2023-01-30T22:56:40;101063.66;;;3.04;100.00
5814;BME280;2933;52.302;8.134;2023-01-30T23:01:43;101066.16;;;3.09;100.00
5814;BME280;2933;52.302;8.134;2023-01-30T23:06:46;101064.47;;;3.04;100.00
5814;BME280;2933;52.302;8.134;2023-01-30T23:11:51;101072.19;;;3.07;100.00
5814;BME280;2933;52.302;8.134;2023-01-30T23:17:07;101070.44;;;3.08;100.00
5814;BME280;2933;52.302;8.134;2023-01-30T23:22:22;101061.19;;;2.98;100.00
5814;BME280;2933;52.302;8.134;2023-01-30T23:27:25;101054.41;;;2.92;100.00
5814;BME280;2933;52.302;8.134;2023-01-30T23:32:27;101059.66;;;2.89;100.00
5814;BME280;2933;52.302;8.134;2023-01-30T23:37:30;101065.09;;;2.75;100.00
5814;BME280;2933;52.302;8.134;2023-01-30T23:42:47;101070.28;;;2.72;100.00
5814;BME280;2933;52.302;8.134;2023-01-30T23:47:50;101066.09;;;2.65;100.00
5814;BME280;2933;52.302;8.134;2023-01-30T23:52:51;101057.72;;;2.53;100.00
5814;BME280;2933;52.302;8.134;2023-01-30T23:57:54;101049.84;;;2.63;100.00
